Buoy 13570

sailwx.info

Track history (hours):
 
Tides and Currents Weather Stations Pressure Air Temp Water Temp Dewpoint Dewpoint Depression Visibility Wind Speed Wind Dir Waves Ship Positions

Drifting buoy 13570

Last reported at 2016-Feb-08 17:00 UTC. Time now 2016-Feb-08 21:22 UTC.
Position N 37°40' W 016°02'.

Barometer 1029.7 mb
Water temperature 15.9 ° C

Date/timePositionNaut miles runAvg speedWind from/ knotsBaromVisibWave heightAir tempDewpointWater temp
2016-Feb-08 17:00N 37°40' W 016°02'2 1.0 1029.7 15.9
2016-Feb-08 15:00N 37°40' W 015°60'2 0.5 1029.2 15.9
2016-Feb-08 11:00N 37°41' W 016°02'1 0.6 1032.0 15.7
2016-Feb-08 10:00N 37°41' W 016°02'0 0.2 1031.8 15.7
2016-Feb-08 09:00N 37°41' W 016°02'1 0.9 1031.4 15.7
2016-Feb-08 08:00N 37°42' W 016°03'0 0.1 1030.1 15.7
2016-Feb-08 07:00N 37°42' W 016°03'0 0.4 1029.8 15.7
2016-Feb-08 06:00N 37°42' W 016°02'1 0.7 1029.6 15.7
2016-Feb-08 05:00N 37°42' W 016°03'1 0.2 1029.6 15.7
2016-Feb-08 01:00N 37°41' W 016°03'1 0.3 1030.5 15.7
2016-Feb-07 23:00N 37°41' W 016°03'0 0.0 1030.4 15.7
2016-Feb-07 22:00N 37°41' W 016°03'0 0.5 1030.4 15.7
2016-Feb-07 21:00N 37°42' W 016°03'0 0.5 1030.5 15.7
2016-Feb-07 20:00N 37°42' W 016°03'1 1.0 1030.4 15.7
2016-Feb-07 19:00N 37°42' W 016°02'1 0.6 1029.8 15.7
2016-Feb-07 18:00N 37°43' W 016°02'0 0.3 1029.6 15.7
2016-Feb-07 17:00N 37°43' W 016°02'1 0.7 1029.1 15.7
2016-Feb-07 16:00N 37°44' W 016°02'0 0.1 1028.9 15.7
2016-Feb-07 15:00N 37°44' W 016°02'1 0.8 1028.8 15.7
2016-Feb-07 14:00N 37°44' W 016°03'2 0.6 1029.0 15.7
2016-Feb-07 11:00N 37°46' W 016°04'0 0.1 1029.2 15.6
2016-Feb-07 07:00N 37°46' W 016°04'0 0.5 1027.6 15.6
2016-Feb-07 06:00N 37°47' W 016°04'1 0.6 1027.2 15.6
2016-Feb-07 05:00N 37°47' W 016°04'4 3.5 1026.8 15.6
2016-Feb-07 04:00N 37°51' W 016°02'1 0.1 1026.6 15.6
2016-Feb-06 21:00N 37°51' W 016°03'2 1.9 1024.3 15.6
2016-Feb-06 20:00N 37°53' W 016°04'1 0.6 1023.5 15.7
2016-Feb-06 18:00N 37°54' W 016°04'0 0.3 1022.4 15.7
2016-Feb-06 17:00N 37°54' W 016°05'1 0.9 1021.5 15.7
2016-Feb-06 16:00N 37°55' W 016°06'0 0.1 1021.0 15.7
2016-Feb-06 15:00N 37°55' W 016°06'2 0.5 1021.1 15.7
2016-Feb-06 12:00N 37°55' W 016°08'0 0.0 1023.2 15.6
2016-Feb-06 11:00N 37°55' W 016°08'2 1.7 1023.6 15.6
2016-Feb-06 10:00N 37°56' W 016°08'0 0.0 1023.4 15.8
2016-Feb-06 09:00N 37°56' W 016°08'0 0.0 1023.8 16.0
2016-Feb-06 08:00N 37°56' W 016°08'0 0.0 1023.2 16.0
2016-Feb-06 06:00N 37°56' W 016°08'1 0.5 1022.5 16.1
2016-Feb-06 04:00N 37°57' W 016°09'1 0.5 1023.8 16.1
2016-Feb-06 02:00N 37°58' W 016°10'1 0.3 1023.6 16.1
2016-Feb-05 23:00N 37°58' W 016°11'1 0.8 1025.9 16.0
2016-Feb-05 22:00N 37°59' W 016°11'0 0.1 1025.9 16.0
2016-Feb-05 21:00N 37°59' W 016°11'1 0.9 1025.8 16.0
2016-Feb-05 20:00N 38°00' W 016°11'1 1.1 1025.5 16.1
2016-Feb-05 19:00N 38°01' W 016°10'1 0.6 1025.2 16.1
2016-Feb-05 18:00N 38°01' W 016°11'0 0.2 1025.0 16.1
2016-Feb-05 17:00N 38°01' W 016°10'1 0.6 1024.7 16.1
2016-Feb-05 15:00N 38°02' W 016°10'1 0.7 1025.0 16.0
2016-Feb-05 14:00N 38°03' W 016°10'1 0.3 1025.7 15.9
2016-Feb-05 10:00N 38°04' W 016°10'0 0.0 1026.9 15.9
2016-Feb-05 09:00N 38°04' W 016°10'1 0.5 1026.3 15.8
2016-Feb-05 08:00N 38°04' W 016°09'0 0.4 1025.8 15.8
2016-Feb-05 07:00N 38°04' W 016°09'1 0.6 1025.4 15.8
2016-Feb-05 06:00N 38°05' W 016°09'1 0.3 1025.7 15.8
2016-Feb-05 02:00N 38°06' W 016°09'1 0.2 1027.0 15.9
2016-Feb-04 23:00N 38°07' W 016°08'0 0.2 1029.0 15.9
2016-Feb-04 21:00N 38°07' W 016°08'1 0.7 1029.1 15.8
2016-Feb-04 20:00N 38°07' W 016°07'1 0.7 1029.2 15.8
2016-Feb-04 19:00N 38°07' W 016°06'0 0.2 1029.0 15.8
2016-Feb-04 17:00N 38°07' W 016°06'1 1.0 1029.1 15.7
2016-Feb-04 16:00N 38°08' W 016°06'1 0.8 1029.3 15.7
2016-Feb-04 15:00N 38°09' W 016°06'0 0.0 1029.7 15.6
2016-Feb-04 14:00N 38°09' W 016°06'1 0.4 1030.5 15.5
2016-Feb-04 12:00N 38°10' W 016°05'0 0.3 1032.8 15.5
2016-Feb-04 11:00N 38°10' W 016°05'1 0.6 1033.4 15.4
2016-Feb-04 10:00N 38°10' W 016°06'2 0.8 1033.6 15.4
2016-Feb-04 08:00N 38°11' W 016°04'1 0.5 1033.3 15.5
2016-Feb-04 05:00N 38°12' W 016°03'3 0.5 1033.8 15.4
2016-Feb-03 22:00N 38°15' W 016°01'5 0.4 1036.4 15.4
2016-Feb-03 11:00N 38°19' W 015°58'1 0.7 1037.4 15.6
2016-Feb-03 09:00N 38°20' W 015°57'1 0.8 1036.3 15.6
2016-Feb-03 08:00N 38°20' W 015°58'0 0.3 1035.8 15.6
2016-Feb-03 07:00N 38°20' W 015°58'1 0.3 1035.6 15.6
2016-Feb-03 03:00N 38°21' W 015°59'0 0.0 1035.6 15.6
2016-Feb-03 02:00N 38°21' W 015°59'2 0.3 1035.6 15.6
2016-Feb-02 19:00N 38°22' W 016°01'0 0.4 1034.9 15.6
2016-Feb-02 18:00N 38°22' W 016°00'0 0.0 1034.6 15.6
2016-Feb-02 17:00N 38°22' W 016°00'2 0.7 1034.1 15.6
2016-Feb-02 14:00N 38°22' W 016°03'3 1.3 1034.4 15.6
2016-Feb-02 12:00N 38°24' W 016°02'1 0.6 1035.8 15.6
2016-Feb-02 11:00N 38°24' W 016°01'1 0.7 1035.9 15.6
2016-Feb-02 10:00N 38°25' W 016°02'0 0.4 1035.4 15.6
2016-Feb-02 09:00N 38°25' W 016°01'0 0.3 1034.9 15.6
2016-Feb-02 08:00N 38°25' W 016°02'1 0.9 1034.3 15.6
2016-Feb-02 07:00N 38°25' W 016°03'0 0.3 1034.0 15.6
2016-Feb-02 06:00N 38°25' W 016°03'0 0.4 1033.6 15.6
2016-Feb-02 05:00N 38°24' W 016°03'1 0.6 1033.6 15.6
2016-Feb-02 04:00N 38°25' W 016°03'2 0.2 1034.1 15.6
2016-Feb-01 20:00N 38°26' W 016°04'0 0.1 1035.3 15.7
2016-Feb-01 19:00N 38°26' W 016°04'1 0.4 1035.3 15.7
2016-Feb-01 16:00N 38°27' W 016°05'1 0.7 1035.1 15.7
2016-Feb-01 14:00N 38°28' W 016°06'0 0.0 1036.2 15.7
2016-Feb-01 13:00N 38°28' W 016°06'1 1.2 1037.0 15.6
2016-Feb-01 12:00N 38°29' W 016°07'1 0.2 1037.8 15.6
2016-Feb-01 07:00N 38°28' W 016°09'0 0.1 1036.4 15.6
2016-Feb-01 06:00N 38°29' W 016°09'0 0.3 1036.4 15.6
2016-Feb-01 05:00N 38°29' W 016°09'1 0.3 1036.6 15.6
2016-Feb-01 03:00N 38°29' W 016°09'0 0.0 1037.1 15.6
2016-Feb-01 02:00N 38°29' W 016°09'2 0.6 1037.8 15.6
2016-Jan-31 22:00N 38°31' W 016°11'0 0.0 1039.4 15.6
2016-Jan-31 21:00N 38°31' W 016°11'0 0.2 1039.5 15.6
2016-Jan-31 19:00N 38°31' W 016°11'1 0.8 1038.7 15.6
2016-Jan-31 18:00N 38°31' W 016°12'1 0.6 1038.5 15.6
2016-Jan-31 17:00N 38°32' W 016°13'2 0.4 1038.3 15.7
2016-Jan-31 12:00N 38°33' W 016°15'0 0.1 1040.5 15.6
2016-Jan-31 11:00N 38°33' W 016°15'1 0.2 1040.6 15.5
2016-Jan-31 08:00N 38°33' W 016°16'0 0.0 1040.0 15.5
2016-Jan-31 07:00N 38°33' W 016°16'0 0.3 1039.8 15.5
2016-Jan-31 06:00N 38°34' W 016°16'1 0.6 1039.4 15.5
2016-Jan-31 04:00N 38°35' W 016°17'0 0.0 1039.6 15.5
2016-Jan-31 03:00N 38°35' W 016°16'3 0.8 1040.2 15.5
2016-Jan-30 23:00N 38°37' W 016°20'1 0.7 1041.2 15.6
2016-Jan-30 22:00N 38°37' W 016°21'0 0.2 1041.0 15.5
2016-Jan-30 21:00N 38°37' W 016°20'1 0.4 1040.9 15.6
2016-Jan-30 19:00N 38°37' W 016°21'2 0.3 1040.3 15.6
2016-Jan-30 12:00N 38°38' W 016°24'1 0.9 1041.7 15.6
2016-Jan-30 11:00N 38°39' W 016°25'2 0.7 1041.6 15.6
2016-Jan-30 08:00N 38°40' W 016°27'0 0.1 1039.8 15.6
2016-Jan-30 07:00N 38°40' W 016°27'4 0.4 1039.2 15.6
2016-Jan-29 22:00N 38°41' W 016°32'1 1.0 1040.3 15.6
2016-Jan-29 21:00N 38°42' W 016°32'0 0.0 1040.3 15.6
2016-Jan-29 20:00N 38°42' W 016°32'1 0.5 1040.0 15.6
2016-Jan-29 19:00N 38°42' W 016°32'1 0.4 1039.5 15.6
2016-Jan-29 17:00N 38°43' W 016°33'   1039.2 15.6
Track history (hours):
 
Tides and Currents Weather Stations Pressure Air Temp Water Temp Dewpoint Dewpoint Depression Visibility Wind Speed Wind Dir Waves Ship Positions

Drifting buoy 13570

Last reported at 2016-Feb-08 17:00 UTC. Time now 2016-Feb-08 21:22 UTC.
Position N 37°40' W 016°02'.

Barometer 1029.7 mb
Water temperature 15.9 ° C

Date/timePositionNaut miles runAvg speedWind from/ knotsBaromVisibWave heightAir tempDewpointWater temp
2016-Feb-08 17:00N 37°40' W 016°02'2 1.0 1029.7 15.9
2016-Feb-08 15:00N 37°40' W 015°60'2 0.5 1029.2 15.9
2016-Feb-08 11:00N 37°41' W 016°02'1 0.6 1032.0 15.7
2016-Feb-08 10:00N 37°41' W 016°02'0 0.2 1031.8 15.7
2016-Feb-08 09:00N 37°41' W 016°02'1 0.9 1031.4 15.7
2016-Feb-08 08:00N 37°42' W 016°03'0 0.1 1030.1 15.7
2016-Feb-08 07:00N 37°42' W 016°03'0 0.4 1029.8 15.7
2016-Feb-08 06:00N 37°42' W 016°02'1 0.7 1029.6 15.7
2016-Feb-08 05:00N 37°42' W 016°03'1 0.2 1029.6 15.7
2016-Feb-08 01:00N 37°41' W 016°03'1 0.3 1030.5 15.7
2016-Feb-07 23:00N 37°41' W 016°03'0 0.0 1030.4 15.7
2016-Feb-07 22:00N 37°41' W 016°03'0 0.5 1030.4 15.7
2016-Feb-07 21:00N 37°42' W 016°03'0 0.5 1030.5 15.7
2016-Feb-07 20:00N 37°42' W 016°03'1 1.0 1030.4 15.7
2016-Feb-07 19:00N 37°42' W 016°02'1 0.6 1029.8 15.7
2016-Feb-07 18:00N 37°43' W 016°02'0 0.3 1029.6 15.7
2016-Feb-07 17:00N 37°43' W 016°02'1 0.7 1029.1 15.7
2016-Feb-07 16:00N 37°44' W 016°02'0 0.1 1028.9 15.7
2016-Feb-07 15:00N 37°44' W 016°02'1 0.8 1028.8 15.7
2016-Feb-07 14:00N 37°44' W 016°03'2 0.6 1029.0 15.7
2016-Feb-07 11:00N 37°46' W 016°04'0 0.1 1029.2 15.6
2016-Feb-07 07:00N 37°46' W 016°04'0 0.5 1027.6 15.6
2016-Feb-07 06:00N 37°47' W 016°04'1 0.6 1027.2 15.6
2016-Feb-07 05:00N 37°47' W 016°04'4 3.5 1026.8 15.6
2016-Feb-07 04:00N 37°51' W 016°02'1 0.1 1026.6 15.6
2016-Feb-06 21:00N 37°51' W 016°03'2 1.9 1024.3 15.6
2016-Feb-06 20:00N 37°53' W 016°04'1 0.6 1023.5 15.7
2016-Feb-06 18:00N 37°54' W 016°04'0 0.3 1022.4 15.7
2016-Feb-06 17:00N 37°54' W 016°05'1 0.9 1021.5 15.7
2016-Feb-06 16:00N 37°55' W 016°06'0 0.1 1021.0 15.7
2016-Feb-06 15:00N 37°55' W 016°06'2 0.5 1021.1 15.7
2016-Feb-06 12:00N 37°55' W 016°08'0 0.0 1023.2 15.6
2016-Feb-06 11:00N 37°55' W 016°08'2 1.7 1023.6 15.6
2016-Feb-06 10:00N 37°56' W 016°08'0 0.0 1023.4 15.8
2016-Feb-06 09:00N 37°56' W 016°08'0 0.0 1023.8 16.0
2016-Feb-06 08:00N 37°56' W 016°08'0 0.0 1023.2 16.0
2016-Feb-06 06:00N 37°56' W 016°08'1 0.5 1022.5 16.1
2016-Feb-06 04:00N 37°57' W 016°09'1 0.5 1023.8 16.1
2016-Feb-06 02:00N 37°58' W 016°10'1 0.3 1023.6 16.1
2016-Feb-05 23:00N 37°58' W 016°11'1 0.8 1025.9 16.0
2016-Feb-05 22:00N 37°59' W 016°11'0 0.1 1025.9 16.0
2016-Feb-05 21:00N 37°59' W 016°11'1 0.9 1025.8 16.0
2016-Feb-05 20:00N 38°00' W 016°11'1 1.1 1025.5 16.1
2016-Feb-05 19:00N 38°01' W 016°10'1 0.6 1025.2 16.1
2016-Feb-05 18:00N 38°01' W 016°11'0 0.2 1025.0 16.1
2016-Feb-05 17:00N 38°01' W 016°10'1 0.6 1024.7 16.1
2016-Feb-05 15:00N 38°02' W 016°10'1 0.7 1025.0 16.0
2016-Feb-05 14:00N 38°03' W 016°10'1 0.3 1025.7 15.9
2016-Feb-05 10:00N 38°04' W 016°10'0 0.0 1026.9 15.9
2016-Feb-05 09:00N 38°04' W 016°10'1 0.5 1026.3 15.8
2016-Feb-05 08:00N 38°04' W 016°09'0 0.4 1025.8 15.8
2016-Feb-05 07:00N 38°04' W 016°09'1 0.6 1025.4 15.8
2016-Feb-05 06:00N 38°05' W 016°09'1 0.3 1025.7 15.8
2016-Feb-05 02:00N 38°06' W 016°09'1 0.2 1027.0 15.9
2016-Feb-04 23:00N 38°07' W 016°08'0 0.2 1029.0 15.9
2016-Feb-04 21:00N 38°07' W 016°08'1 0.7 1029.1 15.8
2016-Feb-04 20:00N 38°07' W 016°07'1 0.7 1029.2 15.8
2016-Feb-04 19:00N 38°07' W 016°06'0 0.2 1029.0 15.8
2016-Feb-04 17:00N 38°07' W 016°06'1 1.0 1029.1 15.7
2016-Feb-04 16:00N 38°08' W 016°06'1 0.8 1029.3 15.7
2016-Feb-04 15:00N 38°09' W 016°06'0 0.0 1029.7 15.6
2016-Feb-04 14:00N 38°09' W 016°06'1 0.4 1030.5 15.5
2016-Feb-04 12:00N 38°10' W 016°05'0 0.3 1032.8 15.5
2016-Feb-04 11:00N 38°10' W 016°05'1 0.6 1033.4 15.4
2016-Feb-04 10:00N 38°10' W 016°06'2 0.8 1033.6 15.4
2016-Feb-04 08:00N 38°11' W 016°04'1 0.5 1033.3 15.5
2016-Feb-04 05:00N 38°12' W 016°03'3 0.5 1033.8 15.4
2016-Feb-03 22:00N 38°15' W 016°01'5 0.4 1036.4 15.4
2016-Feb-03 11:00N 38°19' W 015°58'1 0.7 1037.4 15.6
2016-Feb-03 09:00N 38°20' W 015°57'1 0.8 1036.3 15.6
2016-Feb-03 08:00N 38°20' W 015°58'0 0.3 1035.8 15.6
2016-Feb-03 07:00N 38°20' W 015°58'1 0.3 1035.6 15.6
2016-Feb-03 03:00N 38°21' W 015°59'0 0.0 1035.6 15.6
2016-Feb-03 02:00N 38°21' W 015°59'2 0.3 1035.6 15.6
2016-Feb-02 19:00N 38°22' W 016°01'0 0.4 1034.9 15.6
2016-Feb-02 18:00N 38°22' W 016°00'0 0.0 1034.6 15.6
2016-Feb-02 17:00N 38°22' W 016°00'2 0.7 1034.1 15.6
2016-Feb-02 14:00N 38°22' W 016°03'3 1.3 1034.4 15.6
2016-Feb-02 12:00N 38°24' W 016°02'1 0.6 1035.8 15.6
2016-Feb-02 11:00N 38°24' W 016°01'1 0.7 1035.9 15.6
2016-Feb-02 10:00N 38°25' W 016°02'0 0.4 1035.4 15.6
2016-Feb-02 09:00N 38°25' W 016°01'0 0.3 1034.9 15.6
2016-Feb-02 08:00N 38°25' W 016°02'1 0.9 1034.3 15.6
2016-Feb-02 07:00N 38°25' W 016°03'0 0.3 1034.0 15.6
2016-Feb-02 06:00N 38°25' W 016°03'0 0.4 1033.6 15.6
2016-Feb-02 05:00N 38°24' W 016°03'1 0.6 1033.6 15.6
2016-Feb-02 04:00N 38°25' W 016°03'2 0.2 1034.1 15.6
2016-Feb-01 20:00N 38°26' W 016°04'0 0.1 1035.3 15.7
2016-Feb-01 19:00N 38°26' W 016°04'1 0.4 1035.3 15.7
2016-Feb-01 16:00N 38°27' W 016°05'1 0.7 1035.1 15.7
2016-Feb-01 14:00N 38°28' W 016°06'0 0.0 1036.2 15.7
2016-Feb-01 13:00N 38°28' W 016°06'1 1.2 1037.0 15.6
2016-Feb-01 12:00N 38°29' W 016°07'1 0.2 1037.8 15.6
2016-Feb-01 07:00N 38°28' W 016°09'0 0.1 1036.4 15.6
2016-Feb-01 06:00N 38°29' W 016°09'0 0.3 1036.4 15.6
2016-Feb-01 05:00N 38°29' W 016°09'1 0.3 1036.6 15.6
2016-Feb-01 03:00N 38°29' W 016°09'0 0.0 1037.1 15.6
2016-Feb-01 02:00N 38°29' W 016°09'2 0.6 1037.8 15.6
2016-Jan-31 22:00N 38°31' W 016°11'0 0.0 1039.4 15.6
2016-Jan-31 21:00N 38°31' W 016°11'0 0.2 1039.5 15.6
2016-Jan-31 19:00N 38°31' W 016°11'1 0.8 1038.7 15.6
2016-Jan-31 18:00N 38°31' W 016°12'1 0.6 1038.5 15.6
2016-Jan-31 17:00N 38°32' W 016°13'2 0.4 1038.3 15.7
2016-Jan-31 12:00N 38°33' W 016°15'0 0.1 1040.5 15.6
2016-Jan-31 11:00N 38°33' W 016°15'1 0.2 1040.6 15.5
2016-Jan-31 08:00N 38°33' W 016°16'0 0.0 1040.0 15.5
2016-Jan-31 07:00N 38°33' W 016°16'0 0.3 1039.8 15.5
2016-Jan-31 06:00N 38°34' W 016°16'1 0.6 1039.4 15.5
2016-Jan-31 04:00N 38°35' W 016°17'0 0.0 1039.6 15.5
2016-Jan-31 03:00N 38°35' W 016°16'3 0.8 1040.2 15.5
2016-Jan-30 23:00N 38°37' W 016°20'1 0.7 1041.2 15.6
2016-Jan-30 22:00N 38°37' W 016°21'0 0.2 1041.0 15.5
2016-Jan-30 21:00N 38°37' W 016°20'1 0.4 1040.9 15.6
2016-Jan-30 19:00N 38°37' W 016°21'2 0.3 1040.3 15.6
2016-Jan-30 12:00N 38°38' W 016°24'1 0.9 1041.7 15.6
2016-Jan-30 11:00N 38°39' W 016°25'2 0.7 1041.6 15.6
2016-Jan-30 08:00N 38°40' W 016°27'0 0.1 1039.8 15.6
2016-Jan-30 07:00N 38°40' W 016°27'4 0.4 1039.2 15.6
2016-Jan-29 22:00N 38°41' W 016°32'1 1.0 1040.3 15.6
2016-Jan-29 21:00N 38°42' W 016°32'0 0.0 1040.3 15.6
2016-Jan-29 20:00N 38°42' W 016°32'1 0.5 1040.0 15.6
2016-Jan-29 19:00N 38°42' W 016°32'1 0.4 1039.5 15.6
2016-Jan-29 17:00N 38°43' W 016°33'   1039.2 15.6

Dump ship's entire track history